createdAt,value
2022-09-25T00:02:14.359Z,101327.81
2022-09-25T00:04:42.122Z,101329.97
2022-09-25T00:07:09.749Z,101328.56
2022-09-25T00:09:37.425Z,101329.69
2022-09-25T00:12:05.115Z,101331.00
2022-09-25T00:14:34.202Z,101333.78
2022-09-25T00:17:01.889Z,101334.16
2022-09-25T00:19:47.394Z,101320.56
2022-09-25T00:22:15.041Z,101334.53
2022-09-25T00:24:42.721Z,101333.81
2022-09-25T00:27:10.413Z,101342.03
2022-09-25T00:29:40.413Z,101343.09
2022-09-25T00:32:09.867Z,101345.31
2022-09-25T00:34:38.072Z,101346.38
2022-09-25T00:37:06.238Z,101351.81
2022-09-25T00:39:34.389Z,101344.09
2022-09-25T00:42:02.065Z,101340.75
2022-09-25T00:44:56.555Z,101343.41
2022-09-25T00:47:46.746Z,101348.78
2022-09-25T00:50:23.558Z,101352.28
2022-09-25T00:52:53.693Z,101347.13
2022-09-25T00:55:22.572Z,101346.28
2022-09-25T00:57:52.844Z,101342.91
2022-09-25T01:00:21.880Z,101349.19
2022-09-25T01:02:54.252Z,101355.47
2022-09-25T01:05:24.865Z,101345.91
2022-09-25T01:07:53.797Z,101349.53
2022-09-25T01:10:22.364Z,101354.97
2022-09-25T01:12:51.571Z,101348.22
2022-09-25T01:15:23.293Z,101347.75
2022-09-25T01:18:04.049Z,101343.19
2022-09-25T01:20:51.793Z,101344.50
2022-09-25T01:23:30.726Z,101342.91
2022-09-25T01:26:13.603Z,101348.59
2022-09-25T01:28:52.134Z,101354.47
2022-09-25T01:31:26.209Z,101348.66
2022-09-25T01:33:59.350Z,101350.72
2022-09-25T01:36:29.865Z,101354.44
2022-09-25T01:39:03.550Z,101335.66
2022-09-25T01:41:36.174Z,101350.22
2022-09-25T01:44:10.118Z,101344.44
2022-09-25T01:46:41.624Z,101348.91
2022-09-25T01:49:12.215Z,101349.28
2022-09-25T01:51:42.621Z,101349.41
2022-09-25T01:54:13.389Z,101354.78
2022-09-25T01:56:43.434Z,101359.22
2022-09-25T01:59:18.321Z,101353.94
2022-09-25T02:01:47.726Z,101337.69
2022-09-25T02:04:18.195Z,101355.63
2022-09-25T02:06:49.223Z,101349.47
2022-09-25T02:09:20.075Z,101351.28
2022-09-25T02:11:50.172Z,101336.84
2022-09-25T02:14:21.578Z,101348.91
2022-09-25T02:16:52.400Z,101348.06
2022-09-25T02:19:38.264Z,101344.56
2022-09-25T02:22:09.308Z,101347.22
2022-09-25T02:24:41.260Z,101338.53
2022-09-25T02:27:08.902Z,101345.75
2022-09-25T02:29:38.290Z,101351.28
2022-09-25T02:32:07.154Z,101344.53
2022-09-25T02:34:34.963Z,101341.78
2022-09-25T02:37:02.696Z,101354.16
2022-09-25T02:39:31.708Z,101347.53
2022-09-25T02:42:12.227Z,101357.28
2022-09-25T02:44:54.589Z,101362.78
2022-09-25T02:47:28.366Z,101356.91
2022-09-25T02:50:01.080Z,101361.34
2022-09-25T02:52:34.691Z,101357.97
2022-09-25T02:55:06.726Z,101354.59
2022-09-25T02:57:40.111Z,101351.94
2022-09-25T03:00:11.080Z,101347.63
2022-09-25T03:02:40.162Z,101346.78
2022-09-25T03:05:12.439Z,101343.88
2022-09-25T03:07:54.699Z,101344.59
2022-09-25T03:10:23.465Z,101350.25
2022-09-25T03:12:51.105Z,101357.56
2022-09-25T03:15:20.731Z,101349.84
2022-09-25T03:17:51.072Z,101337.91
2022-09-25T03:20:19.117Z,101347.78
2022-09-25T03:22:47.141Z,101343.44
2022-09-25T03:25:16.129Z,101346.09
2022-09-25T03:27:43.787Z,101339.97
2022-09-25T03:30:12.179Z,101351.38
2022-09-25T03:32:42.187Z,101332.97
2022-09-25T03:35:10.473Z,101331.41
2022-09-25T03:37:38.164Z,101334.03
2022-09-25T03:40:06.926Z,101338.50
2022-09-25T03:42:34.611Z,101340.41
2022-09-25T03:45:02.307Z,101336.19
2022-09-25T03:47:29.950Z,101336.41
2022-09-25T03:49:58.939Z,101338.34
2022-09-25T03:52:26.565Z,101331.38
2022-09-25T03:54:54.188Z,101328.94
2022-09-25T03:57:21.907Z,101335.19
2022-09-25T03:59:49.768Z,101337.09
2022-09-25T04:02:17.437Z,101330.97
2022-09-25T04:04:45.733Z,101332.78
2022-09-25T04:07:14.822Z,101320.50
2022-09-25T04:09:42.487Z,101333.63
2022-09-25T04:12:11.314Z,101330.22
2022-09-25T04:14:39.097Z,101331.19
2022-09-25T04:17:06.747Z,101327.69
2022-09-25T04:19:34.850Z,101325.28
2022-09-25T04:22:02.490Z,101328.03
2022-09-25T04:24:49.826Z,101322.84
2022-09-25T04:27:18.492Z,101331.00
2022-09-25T04:29:46.205Z,101322.47
2022-09-25T04:32:31.178Z,101322.69
2022-09-25T04:34:58.989Z,101311.25
2022-09-25T04:37:27.226Z,101323.66
2022-09-25T04:39:56.793Z,101333.38
2022-09-25T04:42:25.326Z,101332.53
2022-09-25T04:44:54.462Z,101332.66
2022-09-25T04:47:22.510Z,101327.38
2022-09-25T04:49:50.335Z,101321.31
2022-09-25T04:52:18.858Z,101323.03
2022-09-25T04:54:46.621Z,101323.03
2022-09-25T04:57:32.635Z,101321.31
2022-09-25T05:00:06.443Z,101314.31
2022-09-25T05:02:34.409Z,101327.91
2022-09-25T05:05:02.130Z,101323.44
2022-09-25T05:07:29.791Z,101332.34
2022-09-25T05:09:58.429Z,101332.34
2022-09-25T05:12:27.454Z,101328.94
2022-09-25T05:14:55.133Z,101323.78
2022-09-25T05:17:22.769Z,101325.81
2022-09-25T05:19:50.457Z,101326.84
2022-09-25T05:22:18.218Z,101326.00
2022-09-25T05:24:45.873Z,101319.16
2022-09-25T05:27:13.721Z,101320.97
2022-09-25T05:29:42.780Z,101322.63
2022-09-25T05:32:10.457Z,101312.19
2022-09-25T05:34:38.138Z,101310.63
2022-09-25T05:37:05.823Z,101322.88
2022-09-25T05:39:33.514Z,101323.00
2022-09-25T05:42:02.380Z,101317.78
2022-09-25T05:44:30.053Z,101322.34
2022-09-25T05:46:59.017Z,101322.47
2022-09-25T05:49:26.685Z,101319.72
2022-09-25T05:51:54.356Z,101326.91
2022-09-25T05:54:21.930Z,101337.66
2022-09-25T05:56:49.617Z,101326.25
2022-09-25T05:59:17.306Z,101325.66
2022-09-25T06:01:45.066Z,101329.88
2022-09-25T06:04:14.360Z,101322.78
2022-09-25T06:06:41.976Z,101323.53
2022-09-25T06:09:09.662Z,101323.31
2022-09-25T06:11:37.299Z,101319.47
2022-09-25T06:14:05.039Z,101324.56
2022-09-25T06:16:33.350Z,101321.78
2022-09-25T06:19:01.068Z,101315.44
2022-09-25T06:21:30.169Z,101311.88
2022-09-25T06:23:57.838Z,101313.31
2022-09-25T06:26:25.826Z,101315.00
2022-09-25T06:28:55.346Z,101320.16
2022-09-25T06:31:25.600Z,101317.44
2022-09-25T06:33:53.322Z,101316.47
2022-09-25T06:36:20.965Z,101317.91
2022-09-25T06:38:50.429Z,101323.97
2022-09-25T06:41:18.194Z,101327.25
2022-09-25T06:43:46.242Z,101327.25
2022-09-25T06:46:13.988Z,101329.16
2022-09-25T06:48:42.606Z,101326.59
2022-09-25T06:51:10.298Z,101336.44
2022-09-25T06:53:38.004Z,101330.19
2022-09-25T06:56:07.039Z,101331.16
2022-09-25T06:58:36.072Z,101323.97
2022-09-25T07:01:09.096Z,101335.28
2022-09-25T07:03:45.407Z,101336.13
2022-09-25T07:06:14.840Z,101319.00
2022-09-25T07:08:43.629Z,101331.56
2022-09-25T07:11:15.637Z,101328.59
2022-09-25T07:13:43.428Z,101333.66
2022-09-25T07:16:14.079Z,101333.34
2022-09-25T07:18:41.876Z,101330.34
2022-09-25T07:21:11.247Z,101336.13
2022-09-25T07:23:39.078Z,101339.38
2022-09-25T07:26:08.087Z,101352.28
2022-09-25T07:28:37.657Z,101352.78
2022-09-25T07:31:13.155Z,101350.44
2022-09-25T07:33:40.905Z,101344.69
2022-09-25T07:36:09.212Z,101343.47
2022-09-25T07:38:37.455Z,101342.31
2022-09-25T07:41:06.206Z,101348.06
2022-09-25T07:43:33.925Z,101341.47
2022-09-25T07:46:03.126Z,101340.19
2022-09-25T07:48:31.643Z,101334.53
2022-09-25T07:51:01.368Z,101329.59
2022-09-25T07:53:29.295Z,101325.53
2022-09-25T07:56:05.073Z,101333.00
2022-09-25T07:58:37.562Z,101332.28
2022-09-25T08:01:08.302Z,101327.50
2022-09-25T08:03:36.170Z,101330.50
2022-09-25T08:06:05.138Z,101331.81
2022-09-25T08:08:34.380Z,101330.38
2022-09-25T08:11:02.636Z,101329.09
2022-09-25T08:13:30.689Z,101330.28
2022-09-25T08:15:58.432Z,101331.50
2022-09-25T08:18:27.546Z,101333.19
2022-09-25T08:20:55.218Z,101337.88
2022-09-25T08:23:22.803Z,101341.00
2022-09-25T08:25:50.805Z,101345.06
2022-09-25T08:28:18.437Z,101337.84
2022-09-25T08:30:47.222Z,101348.56
2022-09-25T08:33:15.902Z,101337.34
2022-09-25T08:35:45.586Z,101336.13
2022-09-25T08:38:13.245Z,101325.84
2022-09-25T08:40:47.272Z,101334.16
2022-09-25T08:43:19.691Z,101332.97
2022-09-25T08:46:05.053Z,101332.69
2022-09-25T08:48:54.578Z,101332.19
2022-09-25T08:51:23.839Z,101329.16
2022-09-25T08:53:51.478Z,101333.13
2022-09-25T08:56:19.204Z,101322.97
2022-09-25T08:58:51.634Z,101333.44
2022-09-25T09:01:22.601Z,101330.44
2022-09-25T09:03:56.182Z,101331.84
2022-09-25T09:06:26.969Z,101333.28
2022-09-25T09:08:57.000Z,101334.69
2022-09-25T09:11:29.483Z,101335.03
2022-09-25T09:14:02.679Z,101337.34
2022-09-25T09:16:35.686Z,101334.56
2022-09-25T09:19:06.030Z,101334.41
2022-09-25T09:21:37.073Z,101331.75
2022-09-25T09:24:08.891Z,101337.97
2022-09-25T09:26:56.424Z,101340.38
2022-09-25T09:29:39.514Z,101330.47
2022-09-25T09:32:20.634Z,101340.81
2022-09-25T09:35:06.991Z,101334.00
2022-09-25T09:37:49.940Z,101338.09
2022-09-25T09:40:27.208Z,101333.50
2022-09-25T09:43:04.177Z,101326.97
2022-09-25T09:45:40.172Z,101326.69
2022-09-25T09:48:15.160Z,101332.00
2022-09-25T09:50:49.823Z,101326.69
2022-09-25T09:53:29.007Z,101326.41
2022-09-25T09:56:00.953Z,101322.81
2022-09-25T09:58:32.559Z,101311.31
2022-09-25T10:01:16.003Z,101322.00
2022-09-25T10:03:49.635Z,101327.31
2022-09-25T10:06:22.488Z,101315.44
2022-09-25T10:08:51.817Z,101309.03
2022-09-25T10:11:20.135Z,101309.59
2022-09-25T10:13:48.827Z,101304.00
2022-09-25T10:16:18.177Z,101311.19
2022-09-25T10:18:48.703Z,101292.03
2022-09-25T10:21:18.943Z,101295.81
2022-09-25T10:23:52.678Z,101301.59
2022-09-25T10:26:29.161Z,101297.78
2022-09-25T10:28:58.556Z,101288.44
2022-09-25T10:31:28.229Z,101289.88
2022-09-25T10:34:04.518Z,101300.22
2022-09-25T10:36:33.974Z,101288.63
2022-09-25T10:39:24.538Z,101283.06
2022-09-25T10:41:52.774Z,101279.13
2022-09-25T10:44:23.750Z,101281.94
2022-09-25T10:47:08.723Z,101278.44
2022-09-25T10:50:05.341Z,101283.19
2022-09-25T10:52:48.047Z,101286.41
2022-09-25T10:55:25.296Z,101285.13
2022-09-25T10:57:59.503Z,101282.59
2022-09-25T11:00:27.972Z,101288.38
2022-09-25T11:02:57.336Z,101274.09
2022-09-25T11:05:29.281Z,101278.16
2022-09-25T11:07:59.068Z,101280.41
2022-09-25T11:10:30.226Z,101280.53
2022-09-25T11:12:58.689Z,101275.66
2022-09-25T11:15:27.860Z,101281.38
2022-09-25T11:17:56.584Z,101281.81
2022-09-25T11:20:29.577Z,101280.66
2022-09-25T11:23:18.828Z,101268.22
2022-09-25T11:25:53.632Z,101269.31
2022-09-25T11:28:27.992Z,101258.66
2022-09-25T11:31:00.113Z,101261.19
2022-09-25T11:33:35.949Z,101269.88
2022-09-25T11:36:06.605Z,101268.78
2022-09-25T11:38:56.495Z,101254.47
2022-09-25T11:41:31.055Z,101261.19
2022-09-25T11:44:13.280Z,101256.13
2022-09-25T11:46:47.538Z,101246.56
2022-09-25T11:49:20.604Z,101251.34
2022-09-25T11:52:03.548Z,101259.69
2022-09-25T11:54:38.618Z,101258.44
2022-09-25T11:57:11.984Z,101263.09
2022-09-25T11:59:57.902Z,101266.19
2022-09-25T12:02:37.273Z,101259.19
2022-09-25T12:05:18.920Z,101258.69
2022-09-25T12:08:09.908Z,101258.81
2022-09-25T12:10:45.500Z,101262.47
2022-09-25T12:13:22.071Z,101252.25
2022-09-25T12:15:56.499Z,101255.91
2022-09-25T12:18:34.507Z,101251.81
2022-09-25T12:21:05.991Z,101253.66
2022-09-25T12:23:34.750Z,101255.31
2022-09-25T12:26:11.546Z,101252.41
2022-09-25T12:28:52.581Z,101248.47
2022-09-25T12:31:27.894Z,101247.50
2022-09-25T12:34:07.030Z,101242.19
2022-09-25T12:36:37.711Z,101252.38
2022-09-25T12:39:18.240Z,101244.13
2022-09-25T12:41:50.069Z,101243.41
2022-09-25T12:44:27.252Z,101251.13
2022-09-25T12:46:58.950Z,101249.44
2022-09-25T12:49:30.327Z,101237.13
2022-09-25T12:52:01.076Z,101237.13
2022-09-25T12:54:32.844Z,101227.91
2022-09-25T12:57:05.244Z,101219.63
2022-09-25T12:59:41.515Z,101222.88
2022-09-25T13:02:17.887Z,101222.03
2022-09-25T13:04:57.742Z,101225.38
2022-09-25T13:07:28.606Z,101216.41
2022-09-25T13:09:56.266Z,101220.31
2022-09-25T13:12:33.639Z,101211.94
2022-09-25T13:15:06.798Z,101212.22
2022-09-25T13:17:34.463Z,101215.56
2022-09-25T13:20:40.952Z,101213.75
2022-09-25T13:23:11.422Z,101222.56
2022-09-25T13:25:44.049Z,101210.53
2022-09-25T13:28:20.041Z,101214.31
2022-09-25T13:31:10.991Z,101213.34
2022-09-25T13:33:48.641Z,101216.00
2022-09-25T13:36:29.459Z,101206.34
2022-09-25T13:39:16.704Z,101198.91
2022-09-25T13:41:55.370Z,101198.22
2022-09-25T13:44:54.814Z,101195.13
2022-09-25T13:47:44.755Z,101202.53
2022-09-25T13:50:29.967Z,101199.34
2022-09-25T13:53:27.431Z,101193.72
2022-09-25T13:56:19.672Z,101193.44
2022-09-25T13:59:07.457Z,101187.84
2022-09-25T14:01:37.487Z,101179.28
2022-09-25T14:04:20.417Z,101173.78
2022-09-25T14:06:52.497Z,101171.81
2022-09-25T14:09:22.300Z,101165.47
2022-09-25T14:12:03.316Z,101172.44
2022-09-25T14:14:33.744Z,101159.69
2022-09-25T14:17:02.236Z,101166.88
2022-09-25T14:19:33.796Z,101156.22
2022-09-25T14:22:04.240Z,101152.81
2022-09-25T14:24:32.411Z,101157.84
2022-09-25T14:27:02.115Z,101152.81
2022-09-25T14:29:32.745Z,101152.28
2022-09-25T14:32:25.865Z,101137.44
2022-09-25T14:35:14.847Z,101139.53
2022-09-25T14:37:56.575Z,101132.53
2022-09-25T14:40:33.939Z,101139.00
2022-09-25T14:43:14.291Z,101141.38
2022-09-25T14:45:50.665Z,101137.91
2022-09-25T14:48:20.231Z,101130.66
2022-09-25T14:50:51.091Z,101137.59
2022-09-25T14:53:23.489Z,101137.31
2022-09-25T14:55:52.904Z,101145.72
2022-09-25T14:58:22.219Z,101132.16
2022-09-25T15:00:52.659Z,101130.91
2022-09-25T15:03:22.285Z,101125.06
2022-09-25T15:05:51.699Z,101129.25
2022-09-25T15:08:24.361Z,101124.38
2022-09-25T15:11:02.678Z,101125.47
2022-09-25T15:13:33.541Z,101130.09
2022-09-25T15:16:19.846Z,101119.75
2022-09-25T15:18:54.182Z,101122.84
2022-09-25T15:21:25.923Z,101127.47
2022-09-25T15:23:54.757Z,101131.28
2022-09-25T15:26:22.986Z,101132.22
2022-09-25T15:28:51.697Z,101122.56
2022-09-25T15:31:19.936Z,101120.91
2022-09-25T15:34:02.614Z,101105.81
2022-09-25T15:36:31.887Z,101116.72
2022-09-25T15:39:01.717Z,101110.56
2022-09-25T15:41:30.381Z,101107.75
2022-09-25T15:44:13.834Z,101108.84
2022-09-25T15:46:43.635Z,101110.22
2022-09-25T15:49:15.657Z,101102.97
2022-09-25T15:51:52.741Z,101100.16
2022-09-25T15:54:38.681Z,101094.81
2022-09-25T15:57:13.178Z,101096.81
2022-09-25T16:00:03.317Z,101112.78
2022-09-25T16:02:52.535Z,101099.03
2022-09-25T16:05:23.580Z,101107.72
2022-09-25T16:07:56.081Z,101095.69
2022-09-25T16:10:31.022Z,101088.56
2022-09-25T16:12:59.129Z,101093.47
2022-09-25T16:15:49.093Z,101105.25
2022-09-25T16:18:32.359Z,101103.69
2022-09-25T16:21:20.010Z,101083.69
2022-09-25T16:23:56.235Z,101101.84
2022-09-25T16:26:26.541Z,101101.84
2022-09-25T16:29:04.185Z,101092.50
2022-09-25T16:31:32.641Z,101098.50
2022-09-25T16:34:01.121Z,101096.00
2022-09-25T16:36:37.485Z,101093.34
2022-09-25T16:39:14.478Z,101096.53
2022-09-25T16:41:46.084Z,101096.00
2022-09-25T16:44:16.685Z,101091.81
2022-09-25T16:46:45.233Z,101084.09
2022-09-25T16:49:13.310Z,101092.09
2022-09-25T16:51:45.376Z,101092.09
2022-09-25T16:54:16.331Z,101087.59
2022-09-25T16:56:45.341Z,101085.09
2022-09-25T16:59:18.521Z,101086.91
2022-09-25T17:01:47.128Z,101079.09
2022-09-25T17:04:15.683Z,101078.09
2022-09-25T17:06:47.526Z,101080.75
2022-09-25T17:09:17.937Z,101082.44
2022-09-25T17:11:46.799Z,101079.78
2022-09-25T17:14:23.225Z,101074.31
2022-09-25T17:16:51.335Z,101076.41
2022-09-25T17:19:19.202Z,101078.09
2022-09-25T17:21:51.371Z,101079.09
2022-09-25T17:24:23.160Z,101079.91
2022-09-25T17:26:51.710Z,101080.06
2022-09-25T17:29:19.604Z,101075.16
2022-09-25T17:31:47.359Z,101078.81
2022-09-25T17:34:18.178Z,101078.97
2022-09-25T17:36:45.915Z,101082.75
2022-09-25T17:39:14.161Z,101071.50
2022-09-25T17:41:43.830Z,101064.94
2022-09-25T17:44:13.994Z,101075.31
2022-09-25T17:46:41.734Z,101065.66
2022-09-25T17:49:10.271Z,101064.81
2022-09-25T17:51:38.390Z,101061.44
2022-09-25T17:54:06.897Z,101058.94
2022-09-25T17:56:35.338Z,101061.75
2022-09-25T17:59:05.551Z,101053.75
2022-09-25T18:01:39.160Z,101054.19
2022-09-25T18:04:17.099Z,101052.94
2022-09-25T18:06:44.873Z,101057.66
2022-09-25T18:09:12.771Z,101060.47
2022-09-25T18:11:43.583Z,101048.03
2022-09-25T18:14:14.085Z,101054.31
2022-09-25T18:16:43.032Z,101049.00
2022-09-25T18:19:33.711Z,101051.66
2022-09-25T18:22:24.031Z,101047.34
2022-09-25T18:24:56.437Z,101055.31
2022-09-25T18:27:25.430Z,101039.34
2022-09-25T18:29:54.453Z,101037.84
2022-09-25T18:32:22.490Z,101036.00
2022-09-25T18:34:50.209Z,101038.94
2022-09-25T18:37:17.860Z,101041.75
2022-09-25T18:39:47.850Z,101037.56
2022-09-25T18:42:15.523Z,101046.78
2022-09-25T18:44:43.412Z,101035.88
2022-09-25T18:47:12.878Z,101031.00
2022-09-25T18:49:41.018Z,101035.19
2022-09-25T18:52:08.807Z,101036.44
2022-09-25T18:54:36.538Z,101027.78
2022-09-25T18:57:04.500Z,101023.00
2022-09-25T18:59:32.163Z,101033.38
2022-09-25T19:02:00.214Z,101026.38
2022-09-25T19:04:29.675Z,101021.91
2022-09-25T19:06:57.311Z,101019.25
2022-09-25T19:09:27.654Z,101010.41
2022-09-25T19:11:56.126Z,101002.44
2022-09-25T19:14:24.225Z,100996.44
2022-09-25T19:16:53.145Z,100997.28
2022-09-25T19:19:21.002Z,100999.25
2022-09-25T19:21:50.049Z,100992.66
2022-09-25T19:24:18.749Z,100991.97
2022-09-25T19:26:47.986Z,100994.94
2022-09-25T19:29:15.870Z,100991.69
2022-09-25T19:31:44.239Z,100991.84
2022-09-25T19:34:12.136Z,100993.91
2022-09-25T19:36:39.785Z,101002.03
2022-09-25T19:39:08.960Z,100993.66
2022-09-25T19:41:39.048Z,100986.78
2022-09-25T19:44:12.966Z,100987.91
2022-09-25T19:46:42.041Z,100987.22
2022-09-25T19:49:10.271Z,100987.50
2022-09-25T19:51:38.188Z,100991.13
2022-09-25T19:54:07.401Z,100986.78
2022-09-25T19:56:40.593Z,100985.25
2022-09-25T19:59:08.882Z,100977.41
2022-09-25T20:01:36.706Z,100977.69
2022-09-25T20:04:08.196Z,100977.00
2022-09-25T20:06:37.741Z,100986.06
2022-09-25T20:09:06.052Z,100977.41
2022-09-25T20:11:35.202Z,100961.63
2022-09-25T20:14:06.301Z,100961.63
2022-09-25T20:16:34.251Z,100960.91
2022-09-25T20:19:03.435Z,100956.81
2022-09-25T20:21:32.770Z,100960.06
2022-09-25T20:24:02.763Z,100956.69
2022-09-25T20:26:31.371Z,100965.78
2022-09-25T20:29:00.022Z,100959.47
2022-09-25T20:31:30.161Z,100951.66
2022-09-25T20:33:57.890Z,100947.19
2022-09-25T20:36:25.747Z,100945.38
2022-09-25T20:38:54.578Z,100936.56
2022-09-25T20:41:23.634Z,100924.28
2022-09-25T20:43:52.387Z,100936.56
2022-09-25T20:46:20.723Z,100936.72
2022-09-25T20:48:51.464Z,100920.94
2022-09-25T20:51:21.355Z,100928.19
2022-09-25T20:53:50.741Z,100922.88
2022-09-25T20:56:19.002Z,100915.88
2022-09-25T20:58:52.210Z,100911.56
2022-09-25T21:01:23.932Z,100905.56
2022-09-25T21:03:53.616Z,100910.19
2022-09-25T21:06:22.615Z,100908.50
2022-09-25T21:08:52.557Z,100907.78
2022-09-25T21:11:20.423Z,100908.91
2022-09-25T21:13:51.283Z,100907.38
2022-09-25T21:16:20.003Z,100904.84
2022-09-25T21:18:54.300Z,100898.28
2022-09-25T21:21:23.031Z,100904.44
2022-09-25T21:23:52.877Z,100903.72
2022-09-25T21:26:21.386Z,100900.50
2022-09-25T21:28:51.483Z,100904.97
2022-09-25T21:31:20.974Z,100905.13
2022-09-25T21:33:48.950Z,100901.72
2022-09-25T21:36:18.574Z,100913.22
2022-09-25T21:38:46.270Z,100902.72
2022-09-25T21:41:17.041Z,100900.22
2022-09-25T21:43:45.449Z,100897.69
2022-09-25T21:46:15.570Z,100892.38
2022-09-25T21:48:48.702Z,100897.00
2022-09-25T21:51:18.546Z,100891.81
2022-09-25T21:53:46.668Z,100892.78
2022-09-25T21:56:17.387Z,100885.94
2022-09-25T21:58:45.828Z,100883.28
2022-09-25T22:01:18.793Z,100884.28
2022-09-25T22:03:48.411Z,100875.63
2022-09-25T22:06:19.994Z,100878.13
2022-09-25T22:08:49.521Z,100872.00
2022-09-25T22:11:17.217Z,100866.69
2022-09-25T22:13:46.183Z,100868.38
2022-09-25T22:16:15.895Z,100874.66
2022-09-25T22:18:45.116Z,100863.06
2022-09-25T22:21:13.674Z,100861.38
2022-09-25T22:23:43.016Z,100863.91
2022-09-25T22:26:10.715Z,100860.41
2022-09-25T22:28:39.113Z,100863.91
2022-09-25T22:31:08.258Z,100847.97
2022-09-25T22:33:36.028Z,100850.50
2022-09-25T22:36:06.414Z,100849.66
2022-09-25T22:38:34.826Z,100835.41
2022-09-25T22:41:05.736Z,100841.56
2022-09-25T22:43:33.762Z,100835.28
2022-09-25T22:46:01.583Z,100837.94
2022-09-25T22:48:29.297Z,100823.84
2022-09-25T22:50:58.250Z,100821.06
2022-09-25T22:53:26.283Z,100825.66
2022-09-25T22:55:53.914Z,100823.97
2022-09-25T22:58:23.323Z,100822.31
2022-09-25T23:00:53.050Z,100815.31
2022-09-25T23:03:23.375Z,100806.53
2022-09-25T23:05:52.503Z,100807.38
2022-09-25T23:08:20.119Z,100806.69
2022-09-25T23:11:06.266Z,100803.88
2022-09-25T23:13:37.051Z,100808.22
2022-09-25T23:16:06.304Z,100796.75
2022-09-25T23:18:34.461Z,100782.66
2022-09-25T23:21:02.123Z,100785.19
2022-09-25T23:23:29.745Z,100774.56
2022-09-25T23:26:03.347Z,100758.94
2022-09-25T23:28:33.210Z,100752.22
2022-09-25T23:31:07.874Z,100748.44
2022-09-25T23:33:36.075Z,100738.00
2022-09-25T23:36:05.782Z,100745.13
2022-09-25T23:38:33.938Z,100744.13
2022-09-25T23:41:01.974Z,100738.00
2022-09-25T23:43:30.111Z,100734.34
2022-09-25T23:45:57.812Z,100732.69
2022-09-25T23:48:26.882Z,100726.56
2022-09-25T23:50:54.561Z,100719.56
2022-09-25T23:53:22.242Z,100727.69
2022-09-25T23:55:50.664Z,100717.91
2022-09-25T23:58:18.760Z,100719.72
